Pagina principale
METAR-TAF:

METAR-TAF

Aeroporti :

Aeroporto di Cordoba-Ing. A. L. V. Taravella

Córdoba, Argentina

latitudine: 31-19S, longitudine: 064-13W, altezza: 484 m

Osservazione

Il bollettino è stato emesso 22 minuti fa, alle 02:00 UTC
Vento 13 kt da nord/nord-est
Temperature 10°C
Umidità 53%
Pressione 1024 hPa
Visibilità 10 km o più
nessuna nube inferiore a 1500 m e nessun cumulonembo

METAR: SACO 160200Z 02013KT CAVOK 10/01 Q1024 NOSIG

Ora: 23:22 (02:22 UTC)

Previsione

Il bollettino è stato emesso 3 ore e 22 minuti fa, alle 23:00 UTC
Previsione valida dal 16 alle 00 UTC al 16 alle 24 UTC
Vento 10 kt da nord-est
Visibilità 10 km o più
nessuna nube inferiore a 1500 m e nessun cumulonembo
Evoluzione graduale
dal 16 alle 08 UTC al 16 alle 10 UTC
Vento 10 kt da nord
Evoluzione graduale
dal 16 alle 14 UTC al 16 alle 16 UTC
Vento 20 kt da nord/nord-est

TAF: SACO 152300Z 1600/1624 04010KT CAVOK TX24/1618Z TN05/1610Z BECMG 1608/1610 36010KT BECMG 1614/1616 02020KT

Osservazioni e previsioni meteorologiche di più di 4000 aeroporti (messaggi METAR e TAF).

Le stazioni disponibili sono rappresentate dai dischi gialli e rossi sulla carta.

Puntare il mouse per vedere il nome della stazione.

Clicca sopra per visualizzare le osservazioni e previsioni meteorologiche.

Per cambiare la mappa : fare clic sui pulsanti verdi con una croce nera per ingrandire, il pulsante verde con un trattino per diminuire, o sulla freccia verde per le mappe adiacenti.


METAR-TAF: